sensor_id;sensor_type;location;lat;lon;timestamp;pressure;altitude;pressure_sealevel;temperature;humidity
68712;BME280;55690;51.566;19.198;2023-06-10T00:02:12;101526.28;;;20.90;86.58
68712;BME280;55690;51.566;19.198;2023-06-10T00:06:18;101526.89;;;21.02;85.93
68712;BME280;55690;51.566;19.198;2023-06-10T00:10:24;101534.50;;;20.82;86.81
68712;BME280;55690;51.566;19.198;2023-06-10T00:14:30;101534.02;;;20.87;86.31
68712;BME280;55690;51.566;19.198;2023-06-10T00:18:36;101535.65;;;20.72;88.13
68712;BME280;55690;51.566;19.198;2023-06-10T00:22:42;101529.43;;;20.96;86.32
68712;BME280;55690;51.566;19.198;2023-06-10T00:26:49;101526.35;;;20.99;85.63
68712;BME280;55690;51.566;19.198;2023-06-10T00:30:55;101533.28;;;21.03;85.54
68712;BME280;55690;51.566;19.198;2023-06-10T00:35:01;101536.27;;;21.09;85.46
68712;BME280;55690;51.566;19.198;2023-06-10T00:39:07;101529.88;;;21.09;85.78
68712;BME280;55690;51.566;19.198;2023-06-10T00:43:13;101522.84;;;21.14;85.25
68712;BME280;55690;51.566;19.198;2023-06-10T00:47:20;101528.91;;;21.18;85.25
68712;BME280;55690;51.566;19.198;2023-06-10T00:51:26;101523.48;;;21.34;84.17
68712;BME280;55690;51.566;19.198;2023-06-10T00:55:32;101528.36;;;21.40;84.45
68712;BME280;55690;51.566;19.198;2023-06-10T00:59:38;101538.05;;;21.44;85.06
68712;BME280;55690;51.566;19.198;2023-06-10T01:03:44;101540.27;;;21.41;85.38
68712;BME280;55690;51.566;19.198;2023-06-10T01:12:13;101557.55;;;21.17;86.55
68712;BME280;55690;51.566;19.198;2023-06-10T01:16:19;101551.92;;;21.27;86.82
68712;BME280;55690;51.566;19.198;2023-06-10T01:20:21;101554.48;;;21.20;87.26
68712;BME280;55690;51.566;19.198;2023-06-10T01:24:24;101559.40;;;21.34;87.37
68712;BME280;55690;51.566;19.198;2023-06-10T01:28:33;101563.08;;;21.17;87.98
68712;BME280;55690;51.566;19.198;2023-06-10T01:32:41;101561.24;;;21.25;87.04
68712;BME280;55690;51.566;19.198;2023-06-10T01:36:46;101563.63;;;21.20;88.24
68712;BME280;55690;51.566;19.198;2023-06-10T01:40:49;101565.20;;;21.23;87.56
68712;BME280;55690;51.566;19.198;2023-06-10T01:44:53;101570.55;;;21.24;87.74
68712;BME280;55690;51.566;19.198;2023-06-10T01:48:55;101567.51;;;21.10;88.70
68712;BME280;55690;51.566;19.198;2023-06-10T01:53:00;101567.03;;;21.14;88.04
68712;BME280;55690;51.566;19.198;2023-06-10T01:57:05;101584.79;;;21.12;87.88
68712;BME280;55690;51.566;19.198;2023-06-10T02:01:11;101582.35;;;21.09;87.80
68712;BME280;55690;51.566;19.198;2023-06-10T02:05:16;101581.16;;;21.11;87.82
68712;BME280;55690;51.566;19.198;2023-06-10T02:09:23;101584.40;;;21.07;88.55
68712;BME280;55690;51.566;19.198;2023-06-10T02:13:29;101591.69;;;20.90;89.00
68712;BME280;55690;51.566;19.198;2023-06-10T02:17:35;101590.57;;;21.01;88.70
68712;BME280;55690;51.566;19.198;2023-06-10T02:21:41;101591.56;;;20.74;89.18
68712;BME280;55690;51.566;19.198;2023-06-10T02:25:47;101595.31;;;20.90;89.50
68712;BME280;55690;51.566;19.198;2023-06-10T02:29:53;101600.71;;;20.74;89.74
68712;BME280;55690;51.566;19.198;2023-06-10T02:34:00;101604.49;;;20.73;89.63
68712;BME280;55690;51.566;19.198;2023-06-10T02:38:06;101612.47;;;20.76;89.19
68712;BME280;55690;51.566;19.198;2023-06-10T02:42:12;101605.96;;;20.85;88.80
68712;BME280;55690;51.566;19.198;2023-06-10T02:46:18;101607.77;;;20.95;89.55
68712;BME280;55690;51.566;19.198;2023-06-10T02:50:24;101600.05;;;20.80;89.73
68712;BME280;55690;51.566;19.198;2023-06-10T02:54:30;101602.57;;;20.91;89.03
68712;BME280;55690;51.566;19.198;2023-06-10T02:58:37;101600.03;;;20.98;88.59
68712;BME280;55690;51.566;19.198;2023-06-10T03:02:43;101603.66;;;20.99;88.66
68712;BME280;55690;51.566;19.198;2023-06-10T03:06:49;101607.23;;;20.91;89.21
68712;BME280;55690;51.566;19.198;2023-06-10T03:10:55;101613.49;;;20.75;90.01
68712;BME280;55690;51.566;19.198;2023-06-10T03:15:01;101619.07;;;20.48;90.69
68712;BME280;55690;51.566;19.198;2023-06-10T03:19:08;101618.10;;;20.39;90.82
68712;BME280;55690;51.566;19.198;2023-06-10T03:23:14;101623.09;;;20.53;90.91
68712;BME280;55690;51.566;19.198;2023-06-10T03:27:20;101628.79;;;20.70;89.98
68712;BME280;55690;51.566;19.198;2023-06-10T03:31:26;101627.34;;;20.48;90.45
68712;BME280;55690;51.566;19.198;2023-06-10T03:35:33;101633.50;;;20.59;90.35
68712;BME280;55690;51.566;19.198;2023-06-10T03:39:38;101634.53;;;20.58;90.30
68712;BME280;55690;51.566;19.198;2023-06-10T03:43:44;101635.26;;;20.78;89.50
68712;BME280;55690;51.566;19.198;2023-06-10T03:47:51;101642.97;;;20.57;90.32
68712;BME280;55690;51.566;19.198;2023-06-10T03:51:57;101634.46;;;20.68;88.96
68712;BME280;55690;51.566;19.198;2023-06-10T03:56:03;101636.80;;;20.81;89.43
68712;BME280;55690;51.566;19.198;2023-06-10T04:00:10;101636.88;;;20.89;89.32
68712;BME280;55690;51.566;19.198;2023-06-10T04:04:16;101637.90;;;21.06;88.58
68712;BME280;55690;51.566;19.198;2023-06-10T04:08:21;101635.53;;;21.11;88.47
68712;BME280;55690;51.566;19.198;2023-06-10T04:12:28;101644.69;;;21.11;87.73
68712;BME280;55690;51.566;19.198;2023-06-10T04:16:34;101639.80;;;20.87;87.82
68712;BME280;55690;51.566;19.198;2023-06-10T04:20:40;101634.67;;;20.92;86.75
68712;BME280;55690;51.566;19.198;2023-06-10T04:24:46;101627.58;;;20.90;86.42
68712;BME280;55690;51.566;19.198;2023-06-10T04:28:52;101631.20;;;20.90;86.95
68712;BME280;55690;51.566;19.198;2023-06-10T04:32:58;101608.88;;;21.02;85.94
68712;BME280;55690;51.566;19.198;2023-06-10T04:37:05;101630.32;;;21.51;84.53
68712;BME280;55690;51.566;19.198;2023-06-10T04:41:11;101639.72;;;21.67;84.42
68712;BME280;55690;51.566;19.198;2023-06-10T04:45:17;101639.92;;;21.65;84.28
68712;BME280;55690;51.566;19.198;2023-06-10T04:49:23;101625.57;;;21.70;83.83
68712;BME280;55690;51.566;19.198;2023-06-10T04:53:29;101644.53;;;21.90;83.61
68712;BME280;55690;51.566;19.198;2023-06-10T04:57:35;101647.05;;;22.02;83.03
68712;BME280;55690;51.566;19.198;2023-06-10T05:01:42;101651.39;;;22.04;82.78
68712;BME280;55690;51.566;19.198;2023-06-10T05:05:48;101651.76;;;22.09;82.60
68712;BME280;55690;51.566;19.198;2023-06-10T05:09:54;101661.17;;;21.99;82.24
68712;BME280;55690;51.566;19.198;2023-06-10T05:14:00;101660.06;;;22.17;82.73
68712;BME280;55690;51.566;19.198;2023-06-10T05:18:06;101663.41;;;22.29;82.19
68712;BME280;55690;51.566;19.198;2023-06-10T05:22:12;101666.23;;;22.53;82.10
68712;BME280;55690;51.566;19.198;2023-06-10T05:26:19;101676.30;;;22.12;82.11
68712;BME280;55690;51.566;19.198;2023-06-10T05:30:25;101671.19;;;22.84;80.86
68712;BME280;55690;51.566;19.198;2023-06-10T05:34:31;101684.17;;;22.33;80.89
68712;BME280;55690;51.566;19.198;2023-06-10T05:38:37;101678.53;;;22.59;78.46
68712;BME280;55690;51.566;19.198;2023-06-10T05:42:43;101675.04;;;22.41;76.38
68712;BME280;55690;51.566;19.198;2023-06-10T05:46:50;101676.13;;;22.64;76.25
68712;BME280;55690;51.566;19.198;2023-06-10T05:50:56;101669.30;;;23.17;75.57
68712;BME280;55690;51.566;19.198;2023-06-10T05:55:05;101675.89;;;23.32;74.55
68712;BME280;55690;51.566;19.198;2023-06-10T05:59:08;101675.70;;;23.58;74.95
68712;BME280;55690;51.566;19.198;2023-06-10T06:03:14;101670.05;;;23.99;73.92
68712;BME280;55690;51.566;19.198;2023-06-10T06:07:20;101673.98;;;23.33;72.69
68712;BME280;55690;51.566;19.198;2023-06-10T06:11:26;101672.38;;;23.79;73.03
68712;BME280;55690;51.566;19.198;2023-06-10T06:15:32;101672.74;;;24.23;72.11
68712;BME280;55690;51.566;19.198;2023-06-10T06:19:39;101674.98;;;24.28;71.61
68712;BME280;55690;51.566;19.198;2023-06-10T06:23:45;101670.87;;;24.15;72.29
68712;BME280;55690;51.566;19.198;2023-06-10T06:32:25;101677.25;;;24.24;71.08
68712;BME280;55690;51.566;19.198;2023-06-10T06:36:28;101688.21;;;24.26;71.47
68712;BME280;55690;51.566;19.198;2023-06-10T06:40:30;101684.23;;;24.82;70.75
68712;BME280;55690;51.566;19.198;2023-06-10T06:44:31;101683.95;;;25.60;68.80
68712;BME280;55690;51.566;19.198;2023-06-10T06:48:33;101684.06;;;25.52;67.93
68712;BME280;55690;51.566;19.198;2023-06-10T06:52:34;101696.19;;;25.74;68.24
68712;BME280;55690;51.566;19.198;2023-06-10T06:56:37;101708.79;;;25.84;67.71
68712;BME280;55690;51.566;19.198;2023-06-10T07:00:43;101706.94;;;26.65;66.53
68712;BME280;55690;51.566;19.198;2023-06-10T07:04:49;101700.91;;;26.47;66.94
68712;BME280;55690;51.566;19.198;2023-06-10T07:08:55;101696.27;;;26.69;66.59
68712;BME280;55690;51.566;19.198;2023-06-10T07:13:02;101697.87;;;27.14;66.06
68712;BME280;55690;51.566;19.198;2023-06-10T07:17:07;101702.77;;;27.33;65.83
68712;BME280;55690;51.566;19.198;2023-06-10T07:21:14;101715.84;;;27.33;65.59
68712;BME280;55690;51.566;19.198;2023-06-10T07:25:20;101707.14;;;27.42;64.86
68712;BME280;55690;51.566;19.198;2023-06-10T07:29:26;101710.92;;;27.56;63.73
68712;BME280;55690;51.566;19.198;2023-06-10T07:33:32;101710.66;;;27.30;64.55
68712;BME280;55690;51.566;19.198;2023-06-10T07:37:38;101714.13;;;27.10;64.53
68712;BME280;55690;51.566;19.198;2023-06-10T07:41:44;101713.66;;;27.07;64.88
68712;BME280;55690;51.566;19.198;2023-06-10T07:45:51;101714.06;;;27.68;64.40
68712;BME280;55690;51.566;19.198;2023-06-10T07:49:57;101717.73;;;27.26;64.10
68712;BME280;55690;51.566;19.198;2023-06-10T07:54:03;101719.98;;;27.86;64.13
68712;BME280;55690;51.566;19.198;2023-06-10T07:58:09;101725.54;;;27.37;63.72
68712;BME280;55690;51.566;19.198;2023-06-10T08:02:15;101724.97;;;27.63;63.41
68712;BME280;55690;51.566;19.198;2023-06-10T08:06:21;101717.52;;;26.91;63.97
68712;BME280;55690;51.566;19.198;2023-06-10T08:10:27;101727.13;;;27.46;63.45
68712;BME280;55690;51.566;19.198;2023-06-10T08:14:36;101727.95;;;27.19;63.01
68712;BME280;55690;51.566;19.198;2023-06-10T08:18:40;101736.12;;;26.84;62.94
68712;BME280;55690;51.566;19.198;2023-06-10T08:22:46;101730.65;;;27.55;63.65
68712;BME280;55690;51.566;19.198;2023-06-10T08:26:52;101741.37;;;28.00;62.41
68712;BME280;55690;51.566;19.198;2023-06-10T08:30:59;101742.67;;;28.04;60.99
68712;BME280;55690;51.566;19.198;2023-06-10T08:35:05;101745.83;;;28.23;61.32
68712;BME280;55690;51.566;19.198;2023-06-10T08:39:11;101743.54;;;27.56;60.26
68712;BME280;55690;51.566;19.198;2023-06-10T08:43:32;101734.34;;;27.83;61.29
68712;BME280;55690;51.566;19.198;2023-06-10T08:47:35;101731.58;;;27.40;60.74
68712;BME280;55690;51.566;19.198;2023-06-10T08:51:40;101736.04;;;27.56;60.53
68712;BME280;55690;51.566;19.198;2023-06-10T08:55:46;101740.80;;;28.11;60.51
68712;BME280;55690;51.566;19.198;2023-06-10T08:59:50;101747.20;;;28.05;59.66
68712;BME280;55690;51.566;19.198;2023-06-10T09:03:52;101742.20;;;28.70;59.13
68712;BME280;55690;51.566;19.198;2023-06-10T09:07:56;101735.42;;;28.86;59.07
68712;BME280;55690;51.566;19.198;2023-06-10T09:12:00;101731.57;;;28.11;58.98
68712;BME280;55690;51.566;19.198;2023-06-10T09:16:06;101735.37;;;28.79;59.05
68712;BME280;55690;51.566;19.198;2023-06-10T09:20:12;101739.22;;;28.02;59.05
68712;BME280;55690;51.566;19.198;2023-06-10T09:24:18;101732.80;;;28.36;59.09
68712;BME280;55690;51.566;19.198;2023-06-10T09:28:25;101737.85;;;29.02;59.69
68712;BME280;55690;51.566;19.198;2023-06-10T09:32:31;101734.80;;;29.03;57.46
68712;BME280;55690;51.566;19.198;2023-06-10T09:36:38;101739.36;;;29.11;57.58
68712;BME280;55690;51.566;19.198;2023-06-10T09:40:52;101741.80;;;29.40;56.85
68712;BME280;55690;51.566;19.198;2023-06-10T09:44:56;101740.66;;;29.15;56.54
68712;BME280;55690;51.566;19.198;2023-06-10T09:48:58;101738.81;;;28.81;56.85
68712;BME280;55690;51.566;19.198;2023-06-10T09:53:02;101735.67;;;29.04;56.15
68712;BME280;55690;51.566;19.198;2023-06-10T09:57:08;101737.69;;;28.28;53.57
68712;BME280;55690;51.566;19.198;2023-06-10T10:01:14;101735.23;;;28.18;54.36
68712;BME280;55690;51.566;19.198;2023-06-10T10:05:23;101731.23;;;29.29;53.94
68712;BME280;55690;51.566;19.198;2023-06-10T10:09:26;101721.86;;;28.83;51.19
68712;BME280;55690;51.566;19.198;2023-06-10T10:13:36;101739.75;;;28.47;48.21
68712;BME280;55690;51.566;19.198;2023-06-10T10:21:54;101718.33;;;29.94;49.59
68712;BME280;55690;51.566;19.198;2023-06-10T10:26:05;101709.54;;;29.84;46.41
68712;BME280;55690;51.566;19.198;2023-06-10T10:30:11;101717.67;;;29.99;47.13
68712;BME280;55690;51.566;19.198;2023-06-10T10:34:20;101705.88;;;29.64;46.68
68712;BME280;55690;51.566;19.198;2023-06-10T10:38:23;101715.98;;;30.04;48.04
68712;BME280;55690;51.566;19.198;2023-06-10T10:42:26;101711.15;;;30.38;46.17
68712;BME280;55690;51.566;19.198;2023-06-10T10:46:30;101709.83;;;30.47;44.97
68712;BME280;55690;51.566;19.198;2023-06-10T10:50:31;101708.79;;;30.35;43.34
68712;BME280;55690;51.566;19.198;2023-06-10T10:54:37;101704.15;;;30.73;43.78
68712;BME280;55690;51.566;19.198;2023-06-10T10:58:40;101717.91;;;30.17;43.27
68712;BME280;55690;51.566;19.198;2023-06-10T11:02:46;101706.82;;;30.42;40.78
68712;BME280;55690;51.566;19.198;2023-06-10T11:06:55;101720.91;;;30.29;41.87
68712;BME280;55690;51.566;19.198;2023-06-10T11:15:25;101717.92;;;30.04;41.30
68712;BME280;55690;51.566;19.198;2023-06-10T11:19:33;101701.13;;;29.58;41.27
68712;BME280;55690;51.566;19.198;2023-06-10T11:23:40;101699.63;;;29.62;41.31
68712;BME280;55690;51.566;19.198;2023-06-10T11:27:42;101722.25;;;29.80;40.29
68712;BME280;55690;51.566;19.198;2023-06-10T11:31:48;101707.37;;;29.46;39.10
68712;BME280;55690;51.566;19.198;2023-06-10T11:35:51;101695.75;;;29.63;38.88
68712;BME280;55690;51.566;19.198;2023-06-10T11:39:56;101683.86;;;30.14;39.48
68712;BME280;55690;51.566;19.198;2023-06-10T11:44:08;101686.52;;;30.60;39.20
68712;BME280;55690;51.566;19.198;2023-06-10T11:48:13;101696.47;;;30.94;38.13
68712;BME280;55690;51.566;19.198;2023-06-10T11:56:30;101667.39;;;30.37;38.92
68712;BME280;55690;51.566;19.198;2023-06-10T12:00:33;101689.22;;;30.28;39.30
68712;BME280;55690;51.566;19.198;2023-06-10T12:04:34;101684.06;;;30.19;38.62
68712;BME280;55690;51.566;19.198;2023-06-10T12:08:43;101687.14;;;29.58;38.62
68712;BME280;55690;51.566;19.198;2023-06-10T12:12:44;101684.59;;;29.43;38.95
68712;BME280;55690;51.566;19.198;2023-06-10T12:16:50;101676.15;;;29.89;38.62
68712;BME280;55690;51.566;19.198;2023-06-10T12:25:00;101692.74;;;29.71;36.52
68712;BME280;55690;51.566;19.198;2023-06-10T12:33:19;101679.45;;;30.37;37.99
68712;BME280;55690;51.566;19.198;2023-06-10T12:37:22;101682.16;;;30.06;38.77
68712;BME280;55690;51.566;19.198;2023-06-10T12:41:25;101685.59;;;30.08;39.33
68712;BME280;55690;51.566;19.198;2023-06-10T12:45:30;101672.50;;;29.56;39.93
68712;BME280;55690;51.566;19.198;2023-06-10T12:49:32;101672.23;;;29.97;39.26
68712;BME280;55690;51.566;19.198;2023-06-10T12:53:34;101683.05;;;29.54;39.92
68712;BME280;55690;51.566;19.198;2023-06-10T12:57:48;101683.69;;;29.82;40.07
68712;BME280;55690;51.566;19.198;2023-06-10T13:01:51;101678.48;;;30.12;40.32
68712;BME280;55690;51.566;19.198;2023-06-10T13:05:54;101662.82;;;30.49;40.87
68712;BME280;55690;51.566;19.198;2023-06-10T13:09:58;101664.75;;;29.71;40.81
68712;BME280;55690;51.566;19.198;2023-06-10T13:14:04;101653.24;;;30.19;41.28
68712;BME280;55690;51.566;19.198;2023-06-10T13:18:10;101652.84;;;29.95;41.44
68712;BME280;55690;51.566;19.198;2023-06-10T13:22:16;101656.52;;;30.02;42.11
68712;BME280;55690;51.566;19.198;2023-06-10T13:26:22;101651.27;;;30.32;41.89
68712;BME280;55690;51.566;19.198;2023-06-10T13:30:29;101664.46;;;30.19;41.85
68712;BME280;55690;51.566;19.198;2023-06-10T13:34:35;101671.82;;;30.00;42.38
68712;BME280;55690;51.566;19.198;2023-06-10T13:38:41;101649.63;;;29.06;42.22
68712;BME280;55690;51.566;19.198;2023-06-10T13:42:47;101649.68;;;29.59;42.87
68712;BME280;55690;51.566;19.198;2023-06-10T13:46:53;101660.64;;;29.27;42.89
68712;BME280;55690;51.566;19.198;2023-06-10T13:51:00;101660.66;;;29.60;42.63
68712;BME280;55690;51.566;19.198;2023-06-10T13:55:06;101664.27;;;30.00;42.84
68712;BME280;55690;51.566;19.198;2023-06-10T13:59:13;101656.57;;;29.56;41.90
68712;BME280;55690;51.566;19.198;2023-06-10T14:03:18;101659.80;;;29.60;42.20
68712;BME280;55690;51.566;19.198;2023-06-10T14:07:24;101652.25;;;29.80;42.25
68712;BME280;55690;51.566;19.198;2023-06-10T14:11:30;101664.30;;;29.87;41.99
68712;BME280;55690;51.566;19.198;2023-06-10T14:15:36;101647.95;;;29.51;42.06
68712;BME280;55690;51.566;19.198;2023-06-10T14:19:43;101653.55;;;29.38;42.57
68712;BME280;55690;51.566;19.198;2023-06-10T14:23:49;101646.21;;;28.97;43.22
68712;BME280;55690;51.566;19.198;2023-06-10T14:27:55;101644.94;;;29.53;43.00
68712;BME280;55690;51.566;19.198;2023-06-10T14:32:01;101638.46;;;29.19;42.82
68712;BME280;55690;51.566;19.198;2023-06-10T14:36:07;101637.38;;;29.07;43.33
68712;BME280;55690;51.566;19.198;2023-06-10T14:40:13;101641.25;;;28.99;43.37
68712;BME280;55690;51.566;19.198;2023-06-10T14:44:19;101640.18;;;29.13;43.40
68712;BME280;55690;51.566;19.198;2023-06-10T14:48:26;101646.64;;;29.21;43.71
68712;BME280;55690;51.566;19.198;2023-06-10T14:52:33;101624.14;;;28.61;43.33
68712;BME280;55690;51.566;19.198;2023-06-10T14:56:38;101636.51;;;28.93;42.83
68712;BME280;55690;51.566;19.198;2023-06-10T15:00:44;101642.10;;;28.93;43.05
68712;BME280;55690;51.566;19.198;2023-06-10T15:04:51;101630.42;;;28.76;42.80
68712;BME280;55690;51.566;19.198;2023-06-10T15:08:57;101641.34;;;28.65;43.13
68712;BME280;55690;51.566;19.198;2023-06-10T15:13:03;101634.91;;;28.71;42.86
68712;BME280;55690;51.566;19.198;2023-06-10T15:17:09;101639.99;;;28.41;43.06
68712;BME280;55690;51.566;19.198;2023-06-10T15:21:15;101640.23;;;28.46;43.40
68712;BME280;55690;51.566;19.198;2023-06-10T15:25:21;101641.87;;;28.27;43.53
68712;BME280;55690;51.566;19.198;2023-06-10T15:29:27;101649.52;;;28.12;43.29
68712;BME280;55690;51.566;19.198;2023-06-10T15:33:34;101652.99;;;27.86;43.51
68712;BME280;55690;51.566;19.198;2023-06-10T15:37:40;101639.98;;;28.00;43.75
68712;BME280;55690;51.566;19.198;2023-06-10T15:41:46;101654.88;;;27.79;43.71
68712;BME280;55690;51.566;19.198;2023-06-10T15:45:52;101641.17;;;27.84;43.96
68712;BME280;55690;51.566;19.198;2023-06-10T15:49:58;101643.59;;;27.59;43.86
68712;BME280;55690;51.566;19.198;2023-06-10T15:54:04;101644.35;;;27.25;44.30
68712;BME280;55690;51.566;19.198;2023-06-10T15:58:11;101655.98;;;27.57;44.28
68712;BME280;55690;51.566;19.198;2023-06-10T16:02:17;101650.18;;;27.30;43.24
68712;BME280;55690;51.566;19.198;2023-06-10T16:06:23;101659.36;;;27.24;43.58
68712;BME280;55690;51.566;19.198;2023-06-10T16:10:29;101657.46;;;26.89;43.44
68712;BME280;55690;51.566;19.198;2023-06-10T16:14:35;101664.75;;;27.04;43.85
68712;BME280;55690;51.566;19.198;2023-06-10T16:18:41;101668.86;;;27.08;43.98
68712;BME280;55690;51.566;19.198;2023-06-10T16:22:47;101669.19;;;26.99;43.87
68712;BME280;55690;51.566;19.198;2023-06-10T16:26:54;101672.45;;;26.66;43.39
68712;BME280;55690;51.566;19.198;2023-06-10T16:31:00;101669.27;;;26.69;43.48
68712;BME280;55690;51.566;19.198;2023-06-10T16:35:07;101676.66;;;26.77;43.85
68712;BME280;55690;51.566;19.198;2023-06-10T16:39:12;101672.03;;;26.84;43.42
68712;BME280;55690;51.566;19.198;2023-06-10T16:43:18;101684.40;;;26.45;43.98
68712;BME280;55690;51.566;19.198;2023-06-10T16:47:24;101683.98;;;26.63;44.13
68712;BME280;55690;51.566;19.198;2023-06-10T16:51:31;101682.01;;;26.28;44.53
68712;BME280;55690;51.566;19.198;2023-06-10T16:55:37;101683.66;;;26.37;45.06
68712;BME280;55690;51.566;19.198;2023-06-10T16:59:43;101689.63;;;26.34;45.21
68712;BME280;55690;51.566;19.198;2023-06-10T17:03:49;101696.21;;;26.47;45.41
68712;BME280;55690;51.566;19.198;2023-06-10T17:07:55;101693.08;;;26.36;45.94
68712;BME280;55690;51.566;19.198;2023-06-10T17:12:02;101692.50;;;26.40;46.29
68712;BME280;55690;51.566;19.198;2023-06-10T17:16:08;101694.67;;;26.15;46.72
68712;BME280;55690;51.566;19.198;2023-06-10T17:20:14;101693.43;;;26.18;46.88
68712;BME280;55690;51.566;19.198;2023-06-10T17:24:20;101694.77;;;26.07;47.21
68712;BME280;55690;51.566;19.198;2023-06-10T17:28:26;101700.23;;;26.01;47.74
68712;BME280;55690;51.566;19.198;2023-06-10T17:32:32;101707.92;;;25.84;48.18
68712;BME280;55690;51.566;19.198;2023-06-10T17:36:38;101716.37;;;26.05;48.41
68712;BME280;55690;51.566;19.198;2023-06-10T17:40:44;101721.47;;;26.16;48.88
68712;BME280;55690;51.566;19.198;2023-06-10T17:44:51;101732.51;;;25.95;57.73
68712;BME280;55690;51.566;19.198;2023-06-10T17:48:57;101745.91;;;25.54;61.49
68712;BME280;55690;51.566;19.198;2023-06-10T17:53:03;101749.93;;;25.29;63.55
68712;BME280;55690;51.566;19.198;2023-06-10T17:57:09;101745.05;;;25.53;62.13
68712;BME280;55690;51.566;19.198;2023-06-10T18:01:15;101756.61;;;25.65;63.29
68712;BME280;55690;51.566;19.198;2023-06-10T18:05:21;101750.71;;;25.60;63.50
68712;BME280;55690;51.566;19.198;2023-06-10T18:09:29;101764.80;;;25.59;64.35
68712;BME280;55690;51.566;19.198;2023-06-10T18:13:34;101768.72;;;25.72;64.25
68712;BME280;55690;51.566;19.198;2023-06-10T18:17:40;101769.89;;;25.78;63.70
68712;BME280;55690;51.566;19.198;2023-06-10T18:21:46;101775.16;;;25.73;62.96
68712;BME280;55690;51.566;19.198;2023-06-10T18:25:52;101783.91;;;25.84;63.72
68712;BME280;55690;51.566;19.198;2023-06-10T18:29:58;101797.64;;;25.86;64.04
68712;BME280;55690;51.566;19.198;2023-06-10T18:34:05;101791.59;;;25.82;64.16
68712;BME280;55690;51.566;19.198;2023-06-10T18:38:11;101798.40;;;25.80;63.03
68712;BME280;55690;51.566;19.198;2023-06-10T18:42:23;101808.22;;;25.68;65.12
68712;BME280;55690;51.566;19.198;2023-06-10T18:46:25;101811.50;;;25.48;65.18
68712;BME280;55690;51.566;19.198;2023-06-10T18:50:29;101815.32;;;25.47;63.93
68712;BME280;55690;51.566;19.198;2023-06-10T18:54:36;101824.09;;;25.36;64.92
68712;BME280;55690;51.566;19.198;2023-06-10T18:58:41;101825.41;;;25.17;66.59
68712;BME280;55690;51.566;19.198;2023-06-10T19:02:49;101829.56;;;24.82;67.73
68712;BME280;55690;51.566;19.198;2023-06-10T19:06:54;101840.78;;;24.58;68.68
68712;BME280;55690;51.566;19.198;2023-06-10T19:11:01;101848.62;;;24.46;68.88
68712;BME280;55690;51.566;19.198;2023-06-10T19:15:07;101853.67;;;24.35;69.06
68712;BME280;55690;51.566;19.198;2023-06-10T19:19:12;101861.14;;;24.26;69.43
68712;BME280;55690;51.566;19.198;2023-06-10T19:23:18;101851.95;;;24.17;69.08
68712;BME280;55690;51.566;19.198;2023-06-10T19:27:25;101859.41;;;24.09;68.68
68712;BME280;55690;51.566;19.198;2023-06-10T19:31:31;101854.39;;;23.96;69.55
68712;BME280;55690;51.566;19.198;2023-06-10T19:35:37;101859.95;;;23.80;70.37
68712;BME280;55690;51.566;19.198;2023-06-10T19:39:43;101858.20;;;23.71;71.66
68712;BME280;55690;51.566;19.198;2023-06-10T19:43:50;101867.72;;;23.60;71.53
68712;BME280;55690;51.566;19.198;2023-06-10T19:47:55;101877.70;;;23.37;72.34
68712;BME280;55690;51.566;19.198;2023-06-10T19:52:02;101878.55;;;23.29;71.97
68712;BME280;55690;51.566;19.198;2023-06-10T19:56:08;101876.12;;;23.26;71.85
68712;BME280;55690;51.566;19.198;2023-06-10T20:00:18;101879.35;;;23.13;72.94
68712;BME280;55690;51.566;19.198;2023-06-10T20:04:20;101879.65;;;22.94;73.55
68712;BME280;55690;51.566;19.198;2023-06-10T20:08:26;101884.47;;;22.66;74.77
68712;BME280;55690;51.566;19.198;2023-06-10T20:12:32;101891.26;;;22.72;72.97
68712;BME280;55690;51.566;19.198;2023-06-10T20:16:39;101896.74;;;22.64;72.40
68712;BME280;55690;51.566;19.198;2023-06-10T20:20:45;101903.15;;;22.64;74.09
68712;BME280;55690;51.566;19.198;2023-06-10T20:24:51;101897.95;;;22.61;72.58
68712;BME280;55690;51.566;19.198;2023-06-10T20:28:57;101902.45;;;22.62;74.72
68712;BME280;55690;51.566;19.198;2023-06-10T20:33:05;101896.39;;;22.33;76.80
68712;BME280;55690;51.566;19.198;2023-06-10T20:37:09;101905.54;;;22.07;78.10
68712;BME280;55690;51.566;19.198;2023-06-10T20:41:16;101892.88;;;21.87;78.97
68712;BME280;55690;51.566;19.198;2023-06-10T20:45:22;101900.77;;;21.82;78.28
68712;BME280;55690;51.566;19.198;2023-06-10T20:49:28;101899.51;;;21.76;78.21
68712;BME280;55690;51.566;19.198;2023-06-10T20:53:34;101906.91;;;21.40;79.45
68712;BME280;55690;51.566;19.198;2023-06-10T20:57:41;101911.20;;;21.52;78.30
68712;BME280;55690;51.566;19.198;2023-06-10T21:01:46;101915.00;;;21.51;77.37
68712;BME280;55690;51.566;19.198;2023-06-10T21:05:52;101919.40;;;21.44;78.00
68712;BME280;55690;51.566;19.198;2023-06-10T21:09:59;101924.83;;;21.36;79.09
68712;BME280;55690;51.566;19.198;2023-06-10T21:14:05;101918.13;;;21.11;79.16
68712;BME280;55690;51.566;19.198;2023-06-10T21:18:11;101912.03;;;21.08;77.95
68712;BME280;55690;51.566;19.198;2023-06-10T21:22:17;101917.86;;;21.05;78.80
68712;BME280;55690;51.566;19.198;2023-06-10T21:26:23;101922.98;;;21.00;77.72
68712;BME280;55690;51.566;19.198;2023-06-10T21:30:30;101924.20;;;21.15;77.85
68712;BME280;55690;51.566;19.198;2023-06-10T21:34:36;101936.43;;;21.12;78.40
68712;BME280;55690;51.566;19.198;2023-06-10T21:38:42;101931.37;;;21.08;79.03